Barbara Foss — WYL4318 — position and weather

sailwx.info

Track history (hours):
 
Tides and Currents Weather Stations Pressure Air Temp Water Temp Dewpoint Dewpoint Depression Visibility Wind Speed Wind Dir Waves Ship Positions

Barbara Foss

Owner: Foss International, Inc, SEATTLE, WA. More information available from US FCC via Universal Licensing System and Coast Guard Vessel Documentation Center.

Last reported at 2014-Nov-17 04:14 UTC. Time now 2014-Nov-22 00:26 UTC.
Position N 58°16' W 136°11'.

Length 39 m; draft 5.5 m.

Type: Tow > 200 m length. MMSI: 366932130.

Date/timePositionNaut miles runAvg speedWind from/ knotsBaromVisibWave heightAir tempDewpointWater temp
2014-Nov-17 04:14N 58°16' W 136°11'5 7.4
2014-Nov-17 03:33N 58°16' W 136°02'7 6.9
2014-Nov-17 02:33N 58°18' W 135°49'6 1.0
2014-Nov-16 20:32N 58°17' W 135°38'3 3.0
2014-Nov-16 19:28N 58°18' W 135°43'285 5.8
2014-Nov-14 18:22N 54°28' W 130°40'6 7.1
2014-Nov-14 17:34N 54°23' W 130°37'8 8.2
2014-Nov-14 16:33N 54°15' W 130°30'5 5.2
2014-Nov-14 15:33N 54°15' W 130°21'3 0.4
2014-Nov-14 09:28N 54°18' W 130°21'0 0.0
2014-Nov-14 08:31N 54°18' W 130°21'0 0.0
2014-Nov-14 07:31N 54°18' W 130°21'0 0.0
2014-Nov-14 06:31N 54°18' W 130°21'1 0.8
2014-Nov-14 05:33N 54°19' W 130°20'1 0.8
2014-Nov-14 04:31N 54°19' W 130°19'0 0.0
2014-Nov-14 03:31N 54°19' W 130°19'0 0.0
2014-Nov-14 02:31N 54°19' W 130°19'0 0.0
2014-Nov-14 01:33N 54°19' W 130°19'2 1.6
2014-Nov-14 00:33N 54°18' W 130°21'0 0.0
2014-Nov-13 23:33N 54°18' W 130°21'0 0.0
2014-Nov-13 22:30N 54°18' W 130°21'0 0.0
2014-Nov-13 21:33N 54°18' W 130°21'0 0.0
2014-Nov-13 20:33N 54°18' W 130°21'0 0.0
2014-Nov-13 19:33N 54°18' W 130°21'0 0.0
2014-Nov-13 18:33N 54°18' W 130°21'0 0.0
2014-Nov-13 15:33N 54°18' W 130°21'0 0.0
2014-Nov-13 14:33N 54°18' W 130°21'0 0.0
2014-Nov-13 13:33N 54°18' W 130°21'0 0.0
2014-Nov-13 12:33N 54°18' W 130°21'0 0.0
2014-Nov-13 11:33N 54°18' W 130°21'0 0.0
2014-Nov-13 10:30N 54°18' W 130°21'0 0.0
2014-Nov-13 09:33N 54°18' W 130°21'0 0.0
2014-Nov-13 08:30N 54°18' W 130°21'5 3.6
2014-Nov-13 07:12N 54°13' W 130°21'4 5.9
2014-Nov-13 06:33N 54°14' W 130°27'6 6.4
2014-Nov-13 05:33N 54°19' W 130°35'6 6.0
2014-Nov-13 04:33N 54°25' W 130°38'6 6.3
2014-Nov-13 03:33N 54°31' W 130°41'277 6.7
2014-Nov-11 10:22N 58°15' W 135°33'7 8.6
2014-Nov-11 09:33N 58°18' W 135°45'10 9.8
2014-Nov-11 08:33N 58°15' W 136°03'9 8.5
2014-Nov-11 07:33N 58°17' W 136°19'  
Track history (hours):
 
Tides and Currents Weather Stations Pressure Air Temp Water Temp Dewpoint Dewpoint Depression Visibility Wind Speed Wind Dir Waves Ship Positions

Barbara Foss

Owner: Foss International, Inc, SEATTLE, WA. More information available from US FCC via Universal Licensing System and Coast Guard Vessel Documentation Center.

Last reported at 2014-Nov-17 04:14 UTC. Time now 2014-Nov-22 00:26 UTC.
Position N 58°16' W 136°11'.

Length 39 m; draft 5.5 m.

Type: Tow > 200 m length. MMSI: 366932130.

Date/timePositionNaut miles runAvg speedWind from/ knotsBaromVisibWave heightAir tempDewpointWater temp
2014-Nov-17 04:14N 58°16' W 136°11'5 7.4
2014-Nov-17 03:33N 58°16' W 136°02'7 6.9
2014-Nov-17 02:33N 58°18' W 135°49'6 1.0
2014-Nov-16 20:32N 58°17' W 135°38'3 3.0
2014-Nov-16 19:28N 58°18' W 135°43'285 5.8
2014-Nov-14 18:22N 54°28' W 130°40'6 7.1
2014-Nov-14 17:34N 54°23' W 130°37'8 8.2
2014-Nov-14 16:33N 54°15' W 130°30'5 5.2
2014-Nov-14 15:33N 54°15' W 130°21'3 0.4
2014-Nov-14 09:28N 54°18' W 130°21'0 0.0
2014-Nov-14 08:31N 54°18' W 130°21'0 0.0
2014-Nov-14 07:31N 54°18' W 130°21'0 0.0
2014-Nov-14 06:31N 54°18' W 130°21'1 0.8
2014-Nov-14 05:33N 54°19' W 130°20'1 0.8
2014-Nov-14 04:31N 54°19' W 130°19'0 0.0
2014-Nov-14 03:31N 54°19' W 130°19'0 0.0
2014-Nov-14 02:31N 54°19' W 130°19'0 0.0
2014-Nov-14 01:33N 54°19' W 130°19'2 1.6
2014-Nov-14 00:33N 54°18' W 130°21'0 0.0
2014-Nov-13 23:33N 54°18' W 130°21'0 0.0
2014-Nov-13 22:30N 54°18' W 130°21'0 0.0
2014-Nov-13 21:33N 54°18' W 130°21'0 0.0
2014-Nov-13 20:33N 54°18' W 130°21'0 0.0
2014-Nov-13 19:33N 54°18' W 130°21'0 0.0
2014-Nov-13 18:33N 54°18' W 130°21'0 0.0
2014-Nov-13 15:33N 54°18' W 130°21'0 0.0
2014-Nov-13 14:33N 54°18' W 130°21'0 0.0
2014-Nov-13 13:33N 54°18' W 130°21'0 0.0
2014-Nov-13 12:33N 54°18' W 130°21'0 0.0
2014-Nov-13 11:33N 54°18' W 130°21'0 0.0
2014-Nov-13 10:30N 54°18' W 130°21'0 0.0
2014-Nov-13 09:33N 54°18' W 130°21'0 0.0
2014-Nov-13 08:30N 54°18' W 130°21'5 3.6
2014-Nov-13 07:12N 54°13' W 130°21'4 5.9
2014-Nov-13 06:33N 54°14' W 130°27'6 6.4
2014-Nov-13 05:33N 54°19' W 130°35'6 6.0
2014-Nov-13 04:33N 54°25' W 130°38'6 6.3
2014-Nov-13 03:33N 54°31' W 130°41'277 6.7
2014-Nov-11 10:22N 58°15' W 135°33'7 8.6
2014-Nov-11 09:33N 58°18' W 135°45'10 9.8
2014-Nov-11 08:33N 58°15' W 136°03'9 8.5
2014-Nov-11 07:33N 58°17' W 136°19'  

Dump ship's entire track history